Archival Weather

Norman Y Mineta San Jose Intl

San Jose, California (KSJC)

Report from: Friday, February 2, 2024 4:19 AM PST
Current time: Friday, June 21, 2024 12:39 AM PDT

Current weather – Weather history – Daily summaries
Weather forecast

Present weatherLight rain
Temperature10.6°C (51.1°F)
Dew point8.3°C (46.9°F)
Winds 4 kts (2.1 m/s, 4.6 mph) South-Southeast (150°)
Visibility10 mi. (16.1 km)
Clouds Few clouds 2,300 ft. (701 m)
Scattered clouds 2,800 ft. (853 m)
Ceiling: Overcast 6,000 ft. (1,829 m)
Altimeter29.83 in.Hg (1010 mB)
PrecipitiationTrace
Precip. events Rain ended 12:06 PM
Rain began 12:13 PM
Relative humidity86 %
Density altitude-264 ft. (-80 m)
Remarks Fully automated report
Automated weather observing station with precipitation discriminator
Flight conditions Visual Meteorological Conditions
Raw dataKSJC 021219Z AUTO 15004KT 10SM -RA FEW023 SCT028 OVC060 11/08 A2983 RMK AO2 RAE06B13 P0000 T01060083
An error has occurred. This application may no longer respond until reloaded. Reload 🗙